Time;durP1;ratioP1;P1;durP2;ratioP2;P2;SDS_P1;SDS_P2;PMS_P1;PMS_P2;Temp;Humidity;BMP_temperature;BMP_pressure;BME280_temperature;BME280_humidity;BME280_pressure;Samples;Min_cycle;Max_cycle;Signal;HPM_P1;HPM_P2
2023/12/03 07:26:16;;;;;;;;;;;;;;;;;;5004993;28;20317;-73
2023/12/03 07:28:43;;;;;;;;;;;;;;;;;;5005344;28;19926;-73
2023/12/03 07:31:10;;;;;;;;;;;;;;;;;;4997041;28;19932;-73
2023/12/03 07:33:37;;;;;;;;;;;;;;;;;;4996846;28;20422;-73
2023/12/03 07:36:04;;;;;;;;;;;;;;;;;;4997186;28;19933;-73
2023/12/03 07:38:31;;;;;;;;;;;;;;;;;;4997602;28;19937;-73
2023/12/03 07:40:58;;;;;;;;;;;;;;;;;;4997298;28;19926;-71
2023/12/03 07:43:24;;;;;;;;;;;;;;;;;;4997066;28;19932;-72
2023/12/03 07:45:51;;;;;;;;;;;;;;;;;;4996871;28;19926;-72
2023/12/03 07:48:18;;;;;;;;;;;;;;;;;;4996923;28;20394;-74
2023/12/03 07:50:45;;;;;;;;;;;;;;;;;;4996789;28;19925;-74
2023/12/03 07:53:12;;;;;;;;;;;;;;;;;;4996644;28;19933;-74
2023/12/03 07:55:39;;;;;;;;;;;;;;;;;;4996510;28;20338;-74
2023/12/03 07:58:06;;;;;;;;;;;;;;;;;;4996682;28;19933;-75
2023/12/03 08:00:33;;;;;;;;;;;;;;;;;;4995951;28;20375;-75
2023/12/03 08:03:00;;;;;;;;;;;;;;;;;;4996264;28;19933;-76
2023/12/03 08:05:27;;;;;;;;;;;;;;;;;;4996273;28;20399;-75
2023/12/03 08:07:54;;;;;;;;;;;;;;;;;;4996574;28;19929;-74
2023/12/03 08:10:21;;;;;;;;;;;;;;;;;;4996109;28;20391;-75
2023/12/03 08:12:48;;;;;;;;;;;;;;;;;;4996447;28;19933;-75
2023/12/03 08:15:15;;;;;;;;;;;;;;;;;;4996281;28;19925;-75
2023/12/03 08:17:42;;;;;;;;;;;;;;;;;;4996371;28;19925;-75
2023/12/03 08:20:10;;;;;;;;;;;;;;;;;;4996160;28;19932;-75
2023/12/03 08:22:37;;;;;;;;;;;;;;;;;;4997758;28;19929;-75
2023/12/03 08:25:06;;;;;;;;;;;;;;;;;;4998416;28;20377;-75
2023/12/03 08:27:33;;;;;;;;;;;;;;;;;;4998462;28;19925;-75
2023/12/03 08:30:00;;;;;;;;;;;;;;;;;;4996503;28;19929;-75
2023/12/03 08:32:27;;;;;;;;;;;;;;;;;;4996097;28;19926;-76
2023/12/03 08:34:54;;;;;;;;;;;;;;;;;;4995734;28;20290;-77
2023/12/03 08:37:20;;;;;;;;;;;;;;;;;;4995848;28;19936;-76
2023/12/03 08:39:47;;;;;;;;;;;;;;;;;;4995945;28;19922;-75
2023/12/03 08:42:16;;;;;;;;;;;;;;;;;;4995582;28;20287;-76
2023/12/03 08:44:43;;;;;;;;;;;;;;;;;;4995450;28;20016;-76
2023/12/03 08:47:10;;;;;;;;;;;;;;;;;;4995582;28;19933;-75
2023/12/03 08:49:36;;;;;;;;;;;;;;;;;;4995625;28;19926;-76
2023/12/03 08:52:03;;;;;;;;;;;;;;;;;;4995831;28;19933;-76
2023/12/03 08:54:30;;;;;;;;;;;;;;;;;;4996134;28;20013;-76
2023/12/03 08:56:57;;;;;;;;;;;;;;;;;;4996138;28;20276;-75
2023/12/03 08:59:25;;;;;;;;;;;;;;;;;;4997060;28;19926;-77
2023/12/03 09:01:51;;;;;;;;;;;;;;;;;;4996656;28;20354;-77
2023/12/03 09:04:18;;;;;;;;;;;;;;;;;;4996441;28;19926;-76
2023/12/03 09:06:46;;;;;;;;;;;;;;;;;;4995867;28;19926;-75
2023/12/03 09:09:13;;;;;;;;;;;;;;;;;;4996028;28;19930;-76
2023/12/03 09:11:39;;;;;;;;;;;;;;;;;;4996607;28;19933;-75
2023/12/03 09:14:06;;;;;;;;;;;;;;;;;;4995957;28;19932;-75
2023/12/03 09:16:33;;;;;;;;;;;;;;;;;;4995775;28;19926;-74
2023/12/03 09:19:00;;;;;;;;;;;;;;;;;;4995742;28;19933;-74
2023/12/03 09:21:27;;;;;;;;;;;;;;;;;;4995056;28;20402;-74
2023/12/03 09:23:56;;;;;;;;;;;;;;;;;;4995078;28;19933;-74
2023/12/03 09:26:23;;;;;;;;;;;;;;;;;;4994814;28;20407;-74
2023/12/03 09:28:50;;;;;;;;;;;;;;;;;;4995454;28;19926;-75
2023/12/03 09:31:17;;;;;;;;;;;;;;;;;;4995702;28;20298;-74
2023/12/03 09:33:44;;;;;;;;;;;;;;;;;;4995480;28;19933;-73
2023/12/03 09:36:11;;;;;;;;;;;;;;;;;;4995411;28;19925;-76
2023/12/03 09:38:38;;;;;;;;;;;;;;;;;;4994610;28;20302;-73
2023/12/03 09:41:05;;;;;;;;;;;;;;;;;;4994883;28;19925;-73
2023/12/03 09:43:32;;;;;;;;;;;;;;;;;;4994827;28;19952;-72
2023/12/03 09:45:59;;;;;;;;;;;;;;;;;;4994839;28;19929;-74
2023/12/03 09:48:26;;;;;;;;;;;;;;;;;;4994721;28;19926;-73
2023/12/03 09:50:53;;;;;;;;;;;;;;;;;;4994262;28;19934;-73
2023/12/03 09:53:20;;;;;;;;;;;;;;;;;;4994530;28;19926;-73
2023/12/03 09:55:47;;;;;;;;;;;;;;;;;;4994166;28;19933;-73
2023/12/03 09:58:14;;;;;;;;;;;;;;;;;;4994597;28;20012;-73
2023/12/03 10:00:41;;;;;;;;;;;;;;;;;;4994417;28;20294;-73
2023/12/03 10:03:09;;;;;;;;;;;;;;;;;;4994655;28;19933;-73
2023/12/03 10:05:36;;;;;;;;;;;;;;;;;;4994507;28;19929;-72
2023/12/03 10:08:04;;;;;;;;;;;;;;;;;;4994480;28;19936;-72
2023/12/03 10:10:30;;;;;;;;;;;;;;;;;;4995072;28;19926;-72
2023/12/03 10:12:58;;;;;;;;;;;;;;;;;;4994489;28;19933;-71
2023/12/03 10:15:25;;;;;;;;;;;;;;;;;;4994430;28;19933;-71
2023/12/03 10:17:52;;;;;;;;;;;;;;;;;;4994091;28;20348;-71
2023/12/03 10:20:20;;;;;;;;;;;;;;;;;;4994346;28;19926;-71
2023/12/03 10:22:47;;;;;;;;;;;;;;;;;;4994168;28;20371;-72
2023/12/03 10:25:14;;;;;;;;;;;;;;;;;;4994367;28;19934;-72
2023/12/03 10:27:42;;;;;;;;;;;;;;;;;;4994033;28;19933;-72
2023/12/03 10:30:09;;;;;;;;;;;;;;;;;;4994398;28;19933;-72
2023/12/03 10:32:35;;;;;;;;;;;;;;;;;;4994486;28;20065;-72
2023/12/03 10:35:02;;;;;;;;;;;;;;;;;;4994107;28;20303;-73
2023/12/03 10:37:29;;;;;;;;;;;;;;;;;;4994384;28;19926;-73
2023/12/03 10:39:56;;;;;;;;;;;;;;;;;;4993914;28;19933;-72
2023/12/03 10:42:23;;;;;;;;;;;;;;;;;;4994199;28;19930;-72
2023/12/03 10:44:50;;;;;;;;;;;;;;;;;;4994241;28;19926;-72
2023/12/03 10:47:17;;;;;;;;;;;;;;;;;;4994217;28;19925;-72
2023/12/03 10:49:44;;;;;;;;;;;;;;;;;;4994411;28;19926;-72
2023/12/03 10:52:11;;;;;;;;;;;;;;;;;;4997561;28;20391;-72
2023/12/03 10:54:38;;;;;;;;;;;;;;;;;;4997671;28;19932;-72
2023/12/03 10:57:04;;;;;;;;;;;;;;;;;;4997631;28;19933;-72
2023/12/03 10:59:32;;;;;;;;;;;;;;;;;;4997622;28;19926;-72
2023/12/03 11:01:59;;;;;;;;;;;;;;;;;;4998536;28;19925;-72
2023/12/03 11:04:25;;;;;;;;;;;;;;;;;;4997535;28;20265;-72
2023/12/03 11:06:53;;;;;;;;;;;;;;;;;;4997278;28;20441;-73
2023/12/03 11:09:20;;;;;;;;;;;;;;;;;;4997474;28;20383;-72
2023/12/03 11:11:47;;;;;;;;;;;;;;;;;;4998126;28;19933;-73
2023/12/03 11:14:15;;;;;;;;;;;;;;;;;;4997871;28;19925;-72
2023/12/03 11:16:42;;;;;;;;;;;;;;;;;;4997639;28;19929;-72
2023/12/03 11:19:09;;;;;;;;;;;;;;;;;;4997530;28;19948;-72
2023/12/03 11:21:36;;;;;;;;;;;;;;;;;;4997989;28;19926;-73
2023/12/03 11:24:02;;;;;;;;;;;;;;;;;;4997005;28;20418;-73
2023/12/03 11:26:29;;;;;;;;;;;;;;;;;;4997379;28;19933;-73
2023/12/03 11:28:57;;;;;;;;;;;;;;;;;;4997251;28;20402;-71
2023/12/03 11:31:24;;;;;;;;;;;;;;;;;;4997312;28;20020;-74
2023/12/03 11:33:52;;;;;;;;;;;;;;;;;;4996899;28;19926;-73
2023/12/03 11:36:20;;;;;;;;;;;;;;;;;;4999671;28;19949;-73
2023/12/03 11:38:47;;;;;;;;;;;;;;;;;;4997533;28;19926;-73
2023/12/03 11:41:14;;;;;;;;;;;;;;;;;;4997655;28;19926;-73
2023/12/03 11:43:41;;;;;;;;;;;;;;;;;;4996977;28;19937;-76
2023/12/03 11:46:08;;;;;;;;;;;;;;;;;;4996725;28;20315;-73
2023/12/03 11:48:34;;;;;;;;;;;;;;;;;;4997129;28;19926;-74
2023/12/03 11:51:01;;;;;;;;;;;;;;;;;;4996369;28;20391;-73
2023/12/03 11:53:28;;;;;;;;;;;;;;;;;;4996603;28;19925;-74
2023/12/03 11:55:55;;;;;;;;;;;;;;;;;;4996589;28;19926;-74
2023/12/03 11:58:22;;;;;;;;;;;;;;;;;;4996550;28;19926;-73
2023/12/03 12:00:49;;;;;;;;;;;;;;;;;;4995786;28;20376;-73
2023/12/03 12:03:16;;;;;;;;;;;;;;;;;;4995476;28;19933;-73
2023/12/03 12:05:43;;;;;;;;;;;;;;;;;;4995969;28;20311;-74
2023/12/03 12:08:10;;;;;;;;;;;;;;;;;;4996218;28;19968;-74
2023/12/03 12:10:38;;;;;;;;;;;;;;;;;;4997380;28;19977;-73
2023/12/03 12:13:05;;;;;;;;;;;;;;;;;;4996160;28;19972;-74
2023/12/03 12:15:32;;;;;;;;;;;;;;;;;;4996396;28;19933;-76
2023/12/03 12:17:59;;;;;;;;;;;;;;;;;;4996086;28;19925;-75
2023/12/03 12:20:25;;;;;;;;;;;;;;;;;;4996024;28;19926;-74
2023/12/03 12:22:52;;;;;;;;;;;;;;;;;;4995714;28;19926;-74
2023/12/03 12:25:19;;;;;;;;;;;;;;;;;;4995650;28;20376;-73
2023/12/03 12:27:46;;;;;;;;;;;;;;;;;;4995650;28;19932;-73
2023/12/03 12:30:13;;;;;;;;;;;;;;;;;;4995729;28;19930;-73
2023/12/03 12:32:40;;;;;;;;;;;;;;;;;;4995780;28;19952;-72
2023/12/03 12:35:07;;;;;;;;;;;;;;;;;;4995484;28;19932;-72
2023/12/03 12:37:34;;;;;;;;;;;;;;;;;;4995579;28;19930;-74
2023/12/03 12:40:02;;;;;;;;;;;;;;;;;;4995611;28;19933;-74
2023/12/03 12:42:28;;;;;;;;;;;;;;;;;;4995203;28;20280;-75
2023/12/03 12:44:55;;;;;;;;;;;;;;;;;;4995511;28;19933;-74
2023/12/03 12:47:22;;;;;;;;;;;;;;;;;;4995602;28;19949;-75
2023/12/03 12:49:49;;;;;;;;;;;;;;;;;;4995410;28;19929;-74
2023/12/03 12:52:16;;;;;;;;;;;;;;;;;;4995123;28;20280;-75
2023/12/03 12:54:43;;;;;;;;;;;;;;;;;;4995907;28;19925;-75
2023/12/03 12:57:10;;;;;;;;;;;;;;;;;;4995494;28;19926;-74
2023/12/03 12:59:37;;;;;;;;;;;;;;;;;;4995298;28;19933;-74
2023/12/03 13:02:04;;;;;;;;;;;;;;;;;;4996457;28;19965;-74
2023/12/03 13:04:34;;;;;;;;;;;;;;;;;;4995628;28;19930;-74
2023/12/03 13:07:07;;;;;;;;;;;;;;;;;;4995050;28;19933;-74
2023/12/03 13:09:34;;;;;;;;;;;;;;;;;;4994656;28;20359;-74
2023/12/03 13:12:01;;;;;;;;;;;;;;;;;;4994790;28;19932;-74
2023/12/03 13:14:29;;;;;;;;;;;;;;;;;;4994683;28;20025;-75
2023/12/03 13:16:56;;;;;;;;;;;;;;;;;;4994527;28;19984;-74
2023/12/03 13:19:26;;;;;;;;;;;;;;;;;;4995020;28;20065;-74
2023/12/03 13:21:53;;;;;;;;;;;;;;;;;;4994858;28;19925;-74
2023/12/03 13:24:20;;;;;;;;;;;;;;;;;;4994963;28;20020;-74
2023/12/03 13:26:49;;;;;;;;;;;;;;;;;;4993354;28;19926;-74
2023/12/03 13:29:16;;;;;;;;;;;;;;;;;;4994521;28;19926;-74
2023/12/03 13:31:43;;;;;;;;;;;;;;;;;;4994511;28;20371;-74
2023/12/03 13:34:11;;;;;;;;;;;;;;;;;;4994224;28;19925;-74
2023/12/03 13:36:39;;;;;;;;;;;;;;;;;;4994128;28;19933;-74
2023/12/03 13:39:09;;;;;;;;;;;;;;;;;;4994626;28;20012;-73
2023/12/03 13:41:36;;;;;;;;;;;;;;;;;;4994237;28;20021;-73
2023/12/03 13:44:03;;;;;;;;;;;;;;;;;;4995158;28;19926;-72
2023/12/03 13:46:30;;;;;;;;;;;;;;;;;;4995018;28;20009;-77
2023/12/03 13:48:59;;;;;;;;;;;;;;;;;;4994536;28;19926;-73
2023/12/03 13:51:26;;;;;;;;;;;;;;;;;;4994363;28;19973;-73
2023/12/03 13:53:53;;;;;;;;;;;;;;;;;;4994977;28;20376;-73
2023/12/03 13:56:20;;;;;;;;;;;;;;;;;;4995063;28;19926;-73
2023/12/03 13:58:47;;;;;;;;;;;;;;;;;;4995034;28;20334;-71
2023/12/03 14:01:14;;;;;;;;;;;;;;;;;;4994912;28;20017;-70
2023/12/03 14:03:42;;;;;;;;;;;;;;;;;;4994815;28;19945;-72
2023/12/03 14:06:09;;;;;;;;;;;;;;;;;;4993750;28;19992;-74
2023/12/03 14:08:37;;;;;;;;;;;;;;;;;;4994534;28;19926;-73
2023/12/03 14:11:04;;;;;;;;;;;;;;;;;;4993638;28;19926;-74
2023/12/03 14:13:31;;;;;;;;;;;;;;;;;;4994967;28;19926;-74
2023/12/03 14:15:59;;;;;;;;;;;;;;;;;;4994799;28;20422;-75
2023/12/03 14:18:26;;;;;;;;;;;;;;;;;;4994117;28;20446;-74
2023/12/03 14:20:54;;;;;;;;;;;;;;;;;;4995122;28;20025;-75
2023/12/03 14:23:21;;;;;;;;;;;;;;;;;;4994523;28;20041;-74
2023/12/03 14:25:48;;;;;;;;;;;;;;;;;;4997463;28;19926;-78
2023/12/03 14:28:16;;;;;;;;;;;;;;;;;;4999003;28;20394;-75
2023/12/03 14:30:45;;;;;;;;;;;;;;;;;;4998396;28;19926;-75
2023/12/03 14:33:13;;;;;;;;;;;;;;;;;;4998978;28;19965;-75
2023/12/03 14:35:40;;;;;;;;;;;;;;;;;;4998542;28;19992;-76
2023/12/03 14:38:12;;;;;;;;;;;;;;;;;;4997780;28;19926;-76
2023/12/03 14:40:42;;;;;;;;;;;;;;;;;;4998400;28;19925;-77
2023/12/03 14:43:09;;;;;;;;;;;;;;;;;;4997769;28;19926;-77
2023/12/03 14:45:36;;;;;;;;;;;;;;;;;;4998209;28;19930;-75
2023/12/03 14:48:04;;;;;;;;;;;;;;;;;;4997920;28;19926;-75
2023/12/03 14:50:32;;;;;;;;;;;;;;;;;;4997148;28;19926;-75
2023/12/03 14:53:01;;;;;;;;;;;;;;;;;;4998124;28;19926;-76
2023/12/03 14:55:28;;;;;;;;;;;;;;;;;;4997881;28;19926;-77
2023/12/03 14:57:56;;;;;;;;;;;;;;;;;;4998115;28;19981;-76
2023/12/03 15:00:23;;;;;;;;;;;;;;;;;;4998069;28;19926;-76
2023/12/03 15:02:54;;;;;;;;;;;;;;;;;;4997675;28;20419;-76
2023/12/03 15:05:23;;;;;;;;;;;;;;;;;;4997940;28;19948;-76
2023/12/03 15:07:51;;;;;;;;;;;;;;;;;;4998243;28;19971;-74
2023/12/03 15:10:18;;;;;;;;;;;;;;;;;;4998107;28;19926;-74
2023/12/03 15:12:45;;;;;;;;;;;;;;;;;;4998304;28;19926;-73
2023/12/03 15:15:13;;;;;;;;;;;;;;;;;;4998900;28;19933;-73
2023/12/03 15:17:40;;;;;;;;;;;;;;;;;;4999526;28;19949;-73
2023/12/03 15:20:08;;;;;;;;;;;;;;;;;;4999446;28;19925;-74
2023/12/03 15:22:35;;;;;;;;;;;;;;;;;;4999634;28;20160;-72
2023/12/03 15:25:15;;;;;;;;;;;;;;;;;;5001125;28;20448;-73
2023/12/03 15:27:42;;;;;;;;;;;;;;;;;;5001219;28;19938;-73
2023/12/03 15:30:13;;;;;;;;;;;;;;;;;;4999279;28;19992;-74
2023/12/03 15:32:40;;;;;;;;;;;;;;;;;;4998082;28;19926;-74
2023/12/03 15:35:07;;;;;;;;;;;;;;;;;;4998052;28;19926;-73
2023/12/03 15:37:34;;;;;;;;;;;;;;;;;;4997981;28;20016;-74
2023/12/03 15:40:01;;;;;;;;;;;;;;;;;;4995984;28;20379;-74
2023/12/03 15:42:28;;;;;;;;;;;;;;;;;;4996942;28;19968;-74
2023/12/03 15:44:56;;;;;;;;;;;;;;;;;;4996831;28;20122;-74
2023/12/03 15:47:23;;;;;;;;;;;;;;;;;;4996157;28;20332;-74
2023/12/03 15:49:50;;;;;;;;;;;;;;;;;;4997031;28;19932;-74
2023/12/03 15:52:18;;;;;;;;;;;;;;;;;;4997995;28;19926;-74
2023/12/03 15:54:47;;;;;;;;;;;;;;;;;;4996688;28;20303;-73
2023/12/03 15:57:14;;;;;;;;;;;;;;;;;;4997425;28;19948;-73
2023/12/03 15:59:41;;;;;;;;;;;;;;;;;;4997202;28;20284;-74
2023/12/03 16:02:08;;;;;;;;;;;;;;;;;;4997074;28;20387;-73
2023/12/03 16:04:35;;;;;;;;;;;;;;;;;;4996703;28;19926;-74
2023/12/03 16:07:03;;;;;;;;;;;;;;;;;;4996802;28;19933;-74
2023/12/03 16:09:30;;;;;;;;;;;;;;;;;;4996865;28;19949;-74
2023/12/03 16:11:58;;;;;;;;;;;;;;;;;;4996537;28;20024;-74
2023/12/03 16:14:25;;;;;;;;;;;;;;;;;;4996823;28;19973;-74
2023/12/03 16:16:52;;;;;;;;;;;;;;;;;;4996776;28;19926;-73
2023/12/03 16:19:20;;;;;;;;;;;;;;;;;;4995087;28;19925;-71
2023/12/03 16:21:47;;;;;;;;;;;;;;;;;;4996486;28;20290;-71
2023/12/03 16:24:14;;;;;;;;;;;;;;;;;;4996264;28;19926;-74
2023/12/03 16:26:42;;;;;;;;;;;;;;;;;;4996228;28;19972;-74
2023/12/03 16:29:09;;;;;;;;;;;;;;;;;;4996120;28;20384;-73
2023/12/03 16:31:36;;;;;;;;;;;;;;;;;;4996240;28;19930;-72
2023/12/03 16:34:03;;;;;;;;;;;;;;;;;;4995610;28;20402;-72
2023/12/03 16:36:30;;;;;;;;;;;;;;;;;;4995788;28;20470;-73
2023/12/03 16:38:58;;;;;;;;;;;;;;;;;;4995483;28;19969;-70
2023/12/03 16:41:25;;;;;;;;;;;;;;;;;;4995471;28;19926;-70
2023/12/03 16:43:56;;;;;;;;;;;;;;;;;;4995544;28;19926;-72
2023/12/03 16:46:24;;;;;;;;;;;;;;;;;;4995957;28;19933;-71
2023/12/03 16:48:53;;;;;;;;;;;;;;;;;;4994361;28;20302;-73
2023/12/03 16:51:20;;;;;;;;;;;;;;;;;;4995074;28;20405;-73
2023/12/03 16:53:47;;;;;;;;;;;;;;;;;;4995483;28;19926;-73
2023/12/03 16:56:15;;;;;;;;;;;;;;;;;;4994720;28;19976;-75
2023/12/03 16:58:42;;;;;;;;;;;;;;;;;;4996122;28;19926;-73
2023/12/03 17:01:11;;;;;;;;;;;;;;;;;;4995587;28;20387;-72
2023/12/03 17:03:38;;;;;;;;;;;;;;;;;;4995292;28;20371;-73
2023/12/03 17:06:05;;;;;;;;;;;;;;;;;;4995820;28;19996;-71
2023/12/03 17:08:32;;;;;;;;;;;;;;;;;;4995435;28;19926;-71
2023/12/03 17:10:59;;;;;;;;;;;;;;;;;;4995539;28;19926;-72
2023/12/03 17:13:26;;;;;;;;;;;;;;;;;;4995554;28;20291;-72
2023/12/03 17:15:53;;;;;;;;;;;;;;;;;;4995699;28;19926;-74
2023/12/03 17:18:20;;;;;;;;;;;;;;;;;;4995604;28;19933;-71
2023/12/03 17:20:47;;;;;;;;;;;;;;;;;;4994959;28;20403;-72
2023/12/03 17:23:14;;;;;;;;;;;;;;;;;;4995337;28;19926;-74
2023/12/03 17:25:41;;;;;;;;;;;;;;;;;;4994979;28;19932;-71
2023/12/03 17:28:09;;;;;;;;;;;;;;;;;;4994910;28;19925;-71
2023/12/03 17:30:36;;;;;;;;;;;;;;;;;;4995085;28;20359;-72
2023/12/03 17:33:03;;;;;;;;;;;;;;;;;;4994789;28;19969;-74
2023/12/03 17:35:30;;;;;;;;;;;;;;;;;;4994679;28;19930;-73
2023/12/03 17:37:57;;;;;;;;;;;;;;;;;;4994812;28;19929;-73
2023/12/03 17:40:24;;;;;;;;;;;;;;;;;;4994757;28;19925;-73
2023/12/03 17:42:54;;;;;;;;;;;;;;;;;;4993797;28;20206;-74
2023/12/03 17:45:24;;;;;;;;;;;;;;;;;;4995119;28;19926;-73
2023/12/03 17:47:52;;;;;;;;;;;;;;;;;;4995374;28;19972;-72
2023/12/03 17:50:19;;;;;;;;;;;;;;;;;;4994935;28;19976;-72
2023/12/03 17:52:46;;;;;;;;;;;;;;;;;;4994841;28;19933;-72
2023/12/03 17:55:13;;;;;;;;;;;;;;;;;;4994911;28;19973;-74
2023/12/03 17:57:40;;;;;;;;;;;;;;;;;;4995100;28;20371;-74
2023/12/03 18:00:07;;;;;;;;;;;;;;;;;;4998043;28;19930;-74
2023/12/03 18:02:34;;;;;;;;;;;;;;;;;;4999024;28;19926;-75
2023/12/03 18:05:01;;;;;;;;;;;;;;;;;;4998721;28;19972;-75
2023/12/03 18:07:28;;;;;;;;;;;;;;;;;;4998530;28;20403;-76
2023/12/03 18:09:55;;;;;;;;;;;;;;;;;;4998911;28;20016;-75
2023/12/03 18:12:21;;;;;;;;;;;;;;;;;;4998919;28;19959;-74
2023/12/03 18:14:49;;;;;;;;;;;;;;;;;;4999016;28;19926;-73
2023/12/03 18:17:17;;;;;;;;;;;;;;;;;;4998565;28;19933;-73
2023/12/03 18:19:44;;;;;;;;;;;;;;;;;;4998262;28;19972;-73
2023/12/03 18:22:11;;;;;;;;;;;;;;;;;;4998332;28;19926;-72
2023/12/03 18:24:38;;;;;;;;;;;;;;;;;;4998623;28;19937;-72
2023/12/03 18:27:05;;;;;;;;;;;;;;;;;;4998523;28;19933;-72
2023/12/03 18:29:32;;;;;;;;;;;;;;;;;;4998197;28;19926;-73
2023/12/03 18:31:58;;;;;;;;;;;;;;;;;;4998324;28;20387;-72
2023/12/03 18:34:26;;;;;;;;;;;;;;;;;;4998449;28;19926;-73
2023/12/03 18:36:53;;;;;;;;;;;;;;;;;;4998299;28;19930;-72
2023/12/03 18:39:20;;;;;;;;;;;;;;;;;;4998268;28;19926;-73
2023/12/03 18:41:47;;;;;;;;;;;;;;;;;;4997815;28;19985;-73
2023/12/03 18:44:14;;;;;;;;;;;;;;;;;;4998038;28;19933;-74
2023/12/03 18:46:41;;;;;;;;;;;;;;;;;;4998074;28;19980;-73
2023/12/03 18:49:08;;;;;;;;;;;;;;;;;;4997560;28;20401;-74
2023/12/03 18:51:35;;;;;;;;;;;;;;;;;;4998576;28;19933;-74
2023/12/03 18:54:02;;;;;;;;;;;;;;;;;;4998665;28;19926;-73
2023/12/03 18:56:29;;;;;;;;;;;;;;;;;;4998752;28;19926;-74
2023/12/03 18:58:56;;;;;;;;;;;;;;;;;;4998378;28;20447;-72
2023/12/03 19:01:23;;;;;;;;;;;;;;;;;;4998597;28;19926;-72
2023/12/03 19:03:50;;;;;;;;;;;;;;;;;;4998151;28;19933;-71
2023/12/03 19:06:17;;;;;;;;;;;;;;;;;;4998907;28;19933;-72
2023/12/03 19:08:43;;;;;;;;;;;;;;;;;;4999013;28;20299;-72
2023/12/03 19:11:10;;;;;;;;;;;;;;;;;;4998080;28;19933;-73
2023/12/03 19:13:37;;;;;;;;;;;;;;;;;;4998707;28;20298;-72
2023/12/03 19:16:06;;;;;;;;;;;;;;;;;;4998799;28;19925;-72
2023/12/03 19:18:34;;;;;;;;;;;;;;;;;;4998577;28;20299;-72
2023/12/03 19:21:01;;;;;;;;;;;;;;;;;;4999411;28;19932;-71
2023/12/03 19:23:28;;;;;;;;;;;;;;;;;;4998493;28;19930;-73
2023/12/03 19:25:55;;;;;;;;;;;;;;;;;;4998602;28;19926;-72
2023/12/03 19:28:22;;;;;;;;;;;;;;;;;;4997997;28;19926;-72
2023/12/03 19:30:49;;;;;;;;;;;;;;;;;;4998132;28;20035;-71
2023/12/03 19:33:16;;;;;;;;;;;;;;;;;;4998392;28;19981;-72
2023/12/03 19:35:43;;;;;;;;;;;;;;;;;;4998104;28;19926;-72
2023/12/03 19:38:12;;;;;;;;;;;;;;;;;;4998820;28;19933;-70
2023/12/03 19:40:39;;;;;;;;;;;;;;;;;;4998260;28;19925;-72
2023/12/03 19:43:05;;;;;;;;;;;;;;;;;;4998038;28;19953;-71
2023/12/03 19:45:32;;;;;;;;;;;;;;;;;;4998024;28;19925;-71
2023/12/03 19:48:00;;;;;;;;;;;;;;;;;;4997836;28;19926;-72
2023/12/03 19:50:27;;;;;;;;;;;;;;;;;;4997959;28;19925;-71
2023/12/03 19:52:55;;;;;;;;;;;;;;;;;;4997515;28;20418;-70
2023/12/03 19:55:22;;;;;;;;;;;;;;;;;;4998182;28;20029;-71
2023/12/03 19:57:50;;;;;;;;;;;;;;;;;;4998789;28;19932;-71
2023/12/03 20:00:17;;;;;;;;;;;;;;;;;;4997573;28;20330;-71
2023/12/03 20:02:44;;;;;;;;;;;;;;;;;;4997696;28;19926;-71
2023/12/03 20:05:11;;;;;;;;;;;;;;;;;;4998529;28;19932;-71
2023/12/03 20:07:38;;;;;;;;;;;;;;;;;;4997688;28;19937;-70
2023/12/03 20:10:05;;;;;;;;;;;;;;;;;;4997517;28;19926;-71
2023/12/03 20:12:32;;;;;;;;;;;;;;;;;;4997383;28;19933;-71
2023/12/03 20:14:59;;;;;;;;;;;;;;;;;;4997240;28;19926;-70
2023/12/03 20:17:27;;;;;;;;;;;;;;;;;;4997864;28;19925;-71
2023/12/03 20:19:54;;;;;;;;;;;;;;;;;;4997922;28;19930;-71
2023/12/03 20:22:21;;;;;;;;;;;;;;;;;;4996944;28;19926;-71
2023/12/03 20:24:48;;;;;;;;;;;;;;;;;;4996751;28;20243;-71
2023/12/03 20:27:16;;;;;;;;;;;;;;;;;;4997655;28;19926;-71
2023/12/03 20:29:42;;;;;;;;;;;;;;;;;;4997525;28;19972;-70
2023/12/03 20:32:09;;;;;;;;;;;;;;;;;;4997483;28;19948;-71
2023/12/03 20:34:36;;;;;;;;;;;;;;;;;;4997968;28;19925;-71
2023/12/03 20:37:07;;;;;;;;;;;;;;;;;;4998708;28;19933;-70
2023/12/03 20:39:33;;;;;;;;;;;;;;;;;;5001370;28;19957;-70
2023/12/03 20:42:01;;;;;;;;;;;;;;;;;;5001375;28;19948;-71
2023/12/03 20:44:28;;;;;;;;;;;;;;;;;;5003306;28;19930;-70
2023/12/03 20:46:55;;;;;;;;;;;;;;;;;;5009688;28;19926;-71
2023/12/03 20:49:22;;;;;;;;;;;;;;;;;;5014175;28;19929;-71
2023/12/03 20:51:49;;;;;;;;;;;;;;;;;;5013380;28;19926;-70
2023/12/03 20:54:16;;;;;;;;;;;;;;;;;;5012723;28;19926;-71
2023/12/03 20:56:44;;;;;;;;;;;;;;;;;;5013827;28;19953;-71
2023/12/03 20:59:11;;;;;;;;;;;;;;;;;;5015396;28;19990;-71
2023/12/03 21:01:37;;;;;;;;;;;;;;;;;;5006492;28;19926;-70
2023/12/03 21:04:04;;;;;;;;;;;;;;;;;;5002857;28;19932;-71
2023/12/03 21:06:32;;;;;;;;;;;;;;;;;;4999271;28;19926;-70
2023/12/03 21:08:58;;;;;;;;;;;;;;;;;;4998686;28;20410;-71
2023/12/03 21:11:25;;;;;;;;;;;;;;;;;;4998361;28;19932;-71
2023/12/03 21:13:52;;;;;;;;;;;;;;;;;;4998473;28;19925;-71
2023/12/03 21:16:19;;;;;;;;;;;;;;;;;;4997345;28;19933;-70
2023/12/03 21:18:46;;;;;;;;;;;;;;;;;;5002791;28;19926;-71
2023/12/03 21:21:13;;;;;;;;;;;;;;;;;;5003520;28;19933;-70
2023/12/03 21:23:40;;;;;;;;;;;;;;;;;;5002810;28;19925;-69
2023/12/03 21:26:07;;;;;;;;;;;;;;;;;;5004516;28;19932;-71
2023/12/03 21:28:34;;;;;;;;;;;;;;;;;;5001078;28;19926;-70
2023/12/03 21:31:01;;;;;;;;;;;;;;;;;;5004379;28;19932;-72
2023/12/03 21:33:28;;;;;;;;;;;;;;;;;;5006983;28;19926;-72
2023/12/03 21:35:55;;;;;;;;;;;;;;;;;;5005650;28;19930;-73
2023/12/03 21:38:23;;;;;;;;;;;;;;;;;;5006799;28;19926;-72
2023/12/03 21:40:49;;;;;;;;;;;;;;;;;;5006017;28;20406;-72
2023/12/03 21:43:16;;;;;;;;;;;;;;;;;;5001587;28;19933;-72
2023/12/03 21:45:43;;;;;;;;;;;;;;;;;;4999080;28;19926;-70
2023/12/03 21:48:10;;;;;;;;;;;;;;;;;;4995244;28;19930;-70
2023/12/03 21:50:37;;;;;;;;;;;;;;;;;;4995248;28;20008;-71
2023/12/03 21:53:04;;;;;;;;;;;;;;;;;;4995593;28;19926;-70
2023/12/03 21:55:31;;;;;;;;;;;;;;;;;;4995082;28;19926;-71
2023/12/03 21:57:58;;;;;;;;;;;;;;;;;;4996132;28;19926;-70
2023/12/03 22:00:25;;;;;;;;;;;;;;;;;;4995603;28;19933;-70
2023/12/03 22:02:52;;;;;;;;;;;;;;;;;;4995881;28;19932;-70
2023/12/03 22:05:19;;;;;;;;;;;;;;;;;;4995693;28;19997;-70
2023/12/03 22:07:46;;;;;;;;;;;;;;;;;;4995174;28;20390;-70
2023/12/03 22:10:12;;;;;;;;;;;;;;;;;;4996714;28;19926;-70
2023/12/03 22:12:39;;;;;;;;;;;;;;;;;;4996518;28;20408;-70
2023/12/03 22:15:06;;;;;;;;;;;;;;;;;;4995707;28;19926;-70
2023/12/03 22:17:33;;;;;;;;;;;;;;;;;;4995977;28;19932;-71
2023/12/03 22:20:00;;;;;;;;;;;;;;;;;;4996334;28;19926;-72
2023/12/03 22:22:27;;;;;;;;;;;;;;;;;;4995016;28;19926;-72
2023/12/03 22:24:54;;;;;;;;;;;;;;;;;;4994969;28;19930;-72
2023/12/03 22:27:21;;;;;;;;;;;;;;;;;;4994965;28;19926;-70
2023/12/03 22:29:48;;;;;;;;;;;;;;;;;;4994305;28;20273;-70
2023/12/03 22:32:15;;;;;;;;;;;;;;;;;;4994682;28;19925;-72
2023/12/03 22:34:41;;;;;;;;;;;;;;;;;;4995188;28;19929;-72
2023/12/03 22:37:08;;;;;;;;;;;;;;;;;;4994818;28;19933;-72
2023/12/03 22:39:35;;;;;;;;;;;;;;;;;;4994706;28;19949;-72
2023/12/03 22:42:02;;;;;;;;;;;;;;;;;;4994554;28;19926;-71
